sensor_id;sensor_type;location;lat;lon;timestamp;P1;durP1;ratioP1;P2;durP2;ratioP2
4182;SDS011;2105;52.300;9.182;2023-01-08T00:00:55;14.03;;;12.60;;
4182;SDS011;2105;52.300;9.182;2023-01-08T00:03:22;14.30;;;13.10;;
4182;SDS011;2105;52.300;9.182;2023-01-08T00:05:49;12.50;;;11.63;;
4182;SDS011;2105;52.300;9.182;2023-01-08T00:08:16;13.13;;;12.03;;
4182;SDS011;2105;52.300;9.182;2023-01-08T00:10:43;13.40;;;12.47;;
4182;SDS011;2105;52.300;9.182;2023-01-08T00:13:11;13.80;;;12.60;;
4182;SDS011;2105;52.300;9.182;2023-01-08T00:15:39;13.40;;;12.30;;
4182;SDS011;2105;52.300;9.182;2023-01-08T00:18:06;13.27;;;12.27;;
4182;SDS011;2105;52.300;9.182;2023-01-08T00:20:33;13.87;;;12.67;;
4182;SDS011;2105;52.300;9.182;2023-01-08T00:23:00;13.60;;;12.60;;
4182;SDS011;2105;52.300;9.182;2023-01-08T00:25:26;13.27;;;12.37;;
4182;SDS011;2105;52.300;9.182;2023-01-08T00:27:53;14.10;;;13.00;;
4182;SDS011;2105;52.300;9.182;2023-01-08T00:30:20;13.90;;;12.90;;
4182;SDS011;2105;52.300;9.182;2023-01-08T00:32:48;13.93;;;12.93;;
4182;SDS011;2105;52.300;9.182;2023-01-08T00:35:14;13.90;;;12.80;;
4182;SDS011;2105;52.300;9.182;2023-01-08T00:37:41;14.50;;;13.30;;
4182;SDS011;2105;52.300;9.182;2023-01-08T00:40:09;13.33;;;12.43;;
4182;SDS011;2105;52.300;9.182;2023-01-08T00:42:36;13.70;;;12.60;;
4182;SDS011;2105;52.300;9.182;2023-01-08T00:45:03;13.50;;;12.50;;
4182;SDS011;2105;52.300;9.182;2023-01-08T00:47:30;13.77;;;12.77;;
4182;SDS011;2105;52.300;9.182;2023-01-08T00:49:58;13.70;;;12.70;;
4182;SDS011;2105;52.300;9.182;2023-01-08T00:52:25;13.40;;;12.50;;
4182;SDS011;2105;52.300;9.182;2023-01-08T00:54:52;13.63;;;12.60;;
4182;SDS011;2105;52.300;9.182;2023-01-08T00:57:18;13.03;;;12.20;;
4182;SDS011;2105;52.300;9.182;2023-01-08T00:59:45;13.10;;;12.20;;
4182;SDS011;2105;52.300;9.182;2023-01-08T01:02:12;13.93;;;12.83;;
4182;SDS011;2105;52.300;9.182;2023-01-08T01:04:39;13.70;;;12.80;;
4182;SDS011;2105;52.300;9.182;2023-01-08T01:07:07;13.90;;;12.90;;
4182;SDS011;2105;52.300;9.182;2023-01-08T01:09:34;13.50;;;12.60;;
4182;SDS011;2105;52.300;9.182;2023-01-08T01:12:01;14.23;;;13.23;;
4182;SDS011;2105;52.300;9.182;2023-01-08T01:14:27;13.77;;;12.77;;
4182;SDS011;2105;52.300;9.182;2023-01-08T01:16:54;14.10;;;12.90;;
4182;SDS011;2105;52.300;9.182;2023-01-08T01:19:21;13.43;;;12.43;;
4182;SDS011;2105;52.300;9.182;2023-01-08T01:21:48;14.03;;;12.90;;
4182;SDS011;2105;52.300;9.182;2023-01-08T01:24:16;13.97;;;12.87;;
4182;SDS011;2105;52.300;9.182;2023-01-08T01:26:43;14.10;;;13.10;;
4182;SDS011;2105;52.300;9.182;2023-01-08T01:29:09;14.67;;;13.57;;
4182;SDS011;2105;52.300;9.182;2023-01-08T01:31:36;14.70;;;13.40;;
4182;SDS011;2105;52.300;9.182;2023-01-08T01:34:03;13.90;;;12.90;;
4182;SDS011;2105;52.300;9.182;2023-01-08T01:36:30;13.60;;;12.70;;
4182;SDS011;2105;52.300;9.182;2023-01-08T01:38:56;14.37;;;13.27;;
4182;SDS011;2105;52.300;9.182;2023-01-08T01:41:25;14.00;;;12.90;;
4182;SDS011;2105;52.300;9.182;2023-01-08T01:43:54;16.20;;;13.30;;
4182;SDS011;2105;52.300;9.182;2023-01-08T01:46:27;14.23;;;13.13;;
4182;SDS011;2105;52.300;9.182;2023-01-08T01:49:02;14.70;;;13.27;;
4182;SDS011;2105;52.300;9.182;2023-01-08T01:51:32;13.90;;;12.93;;
4182;SDS011;2105;52.300;9.182;2023-01-08T01:54:01;14.53;;;13.47;;
4182;SDS011;2105;52.300;9.182;2023-01-08T01:56:31;13.87;;;12.80;;
4182;SDS011;2105;52.300;9.182;2023-01-08T01:58:59;13.50;;;12.60;;
4182;SDS011;2105;52.300;9.182;2023-01-08T02:01:26;13.57;;;12.57;;
4182;SDS011;2105;52.300;9.182;2023-01-08T02:03:55;14.30;;;13.00;;
4182;SDS011;2105;52.300;9.182;2023-01-08T02:06:24;13.80;;;12.70;;
4182;SDS011;2105;52.300;9.182;2023-01-08T02:09:00;13.77;;;12.77;;
4182;SDS011;2105;52.300;9.182;2023-01-08T02:11:36;13.20;;;12.20;;
4182;SDS011;2105;52.300;9.182;2023-01-08T02:14:13;14.70;;;13.40;;
4182;SDS011;2105;52.300;9.182;2023-01-08T02:16:44;14.20;;;13.10;;
4182;SDS011;2105;52.300;9.182;2023-01-08T02:19:18;13.73;;;12.73;;
4182;SDS011;2105;52.300;9.182;2023-01-08T02:22:01;14.07;;;13.00;;
4182;SDS011;2105;52.300;9.182;2023-01-08T02:24:40;13.47;;;12.57;;
4182;SDS011;2105;52.300;9.182;2023-01-08T02:27:17;13.37;;;12.27;;
4182;SDS011;2105;52.300;9.182;2023-01-08T02:29:46;13.27;;;12.23;;
4182;SDS011;2105;52.300;9.182;2023-01-08T02:32:13;13.53;;;12.53;;
4182;SDS011;2105;52.300;9.182;2023-01-08T02:34:40;12.90;;;12.00;;
4182;SDS011;2105;52.300;9.182;2023-01-08T02:37:07;13.60;;;12.50;;
4182;SDS011;2105;52.300;9.182;2023-01-08T02:39:45;13.20;;;12.20;;
4182;SDS011;2105;52.300;9.182;2023-01-08T02:42:28;13.53;;;12.30;;
4182;SDS011;2105;52.300;9.182;2023-01-08T02:45:02;13.30;;;12.40;;
4182;SDS011;2105;52.300;9.182;2023-01-08T02:47:37;13.30;;;12.20;;
4182;SDS011;2105;52.300;9.182;2023-01-08T02:50:13;13.33;;;12.33;;
4182;SDS011;2105;52.300;9.182;2023-01-08T02:52:47;13.57;;;12.47;;
4182;SDS011;2105;52.300;9.182;2023-01-08T02:55:21;13.60;;;12.60;;
4182;SDS011;2105;52.300;9.182;2023-01-08T02:57:51;13.30;;;12.30;;
4182;SDS011;2105;52.300;9.182;2023-01-08T03:00:18;13.07;;;12.17;;
4182;SDS011;2105;52.300;9.182;2023-01-08T03:02:45;13.00;;;12.20;;
4182;SDS011;2105;52.300;9.182;2023-01-08T03:05:16;13.63;;;12.57;;
4182;SDS011;2105;52.300;9.182;2023-01-08T03:07:47;12.90;;;12.00;;
4182;SDS011;2105;52.300;9.182;2023-01-08T03:10:14;13.37;;;12.03;;
4182;SDS011;2105;52.300;9.182;2023-01-08T03:12:46;13.00;;;12.10;;
4182;SDS011;2105;52.300;9.182;2023-01-08T03:15:20;12.70;;;11.70;;
4182;SDS011;2105;52.300;9.182;2023-01-08T03:17:50;12.90;;;11.90;;
4182;SDS011;2105;52.300;9.182;2023-01-08T03:20:22;13.40;;;12.00;;
4182;SDS011;2105;52.300;9.182;2023-01-08T03:22:51;12.70;;;11.80;;
4182;SDS011;2105;52.300;9.182;2023-01-08T03:25:21;13.10;;;12.13;;
4182;SDS011;2105;52.300;9.182;2023-01-08T03:27:51;12.70;;;11.80;;
4182;SDS011;2105;52.300;9.182;2023-01-08T03:30:21;12.80;;;11.80;;
4182;SDS011;2105;52.300;9.182;2023-01-08T03:32:49;13.00;;;12.10;;
4182;SDS011;2105;52.300;9.182;2023-01-08T03:35:19;12.20;;;11.40;;
4182;SDS011;2105;52.300;9.182;2023-01-08T03:37:50;13.07;;;12.07;;
4182;SDS011;2105;52.300;9.182;2023-01-08T03:40:22;12.20;;;11.40;;
4182;SDS011;2105;52.300;9.182;2023-01-08T03:42:55;12.60;;;11.70;;
4182;SDS011;2105;52.300;9.182;2023-01-08T03:45:22;12.77;;;11.87;;
4182;SDS011;2105;52.300;9.182;2023-01-08T03:47:52;12.40;;;11.60;;
4182;SDS011;2105;52.300;9.182;2023-01-08T03:50:21;12.67;;;11.60;;
4182;SDS011;2105;52.300;9.182;2023-01-08T03:52:51;13.00;;;12.00;;
4182;SDS011;2105;52.300;9.182;2023-01-08T03:55:18;11.67;;;10.97;;
4182;SDS011;2105;52.300;9.182;2023-01-08T03:57:44;11.80;;;10.90;;
4182;SDS011;2105;52.300;9.182;2023-01-08T04:00:13;12.20;;;11.30;;
4182;SDS011;2105;52.300;9.182;2023-01-08T04:02:40;12.60;;;11.60;;
4182;SDS011;2105;52.300;9.182;2023-01-08T04:05:07;11.50;;;10.70;;
4182;SDS011;2105;52.300;9.182;2023-01-08T04:07:35;12.10;;;11.30;;
4182;SDS011;2105;52.300;9.182;2023-01-08T04:10:01;12.07;;;11.03;;
4182;SDS011;2105;52.300;9.182;2023-01-08T04:12:28;12.57;;;11.47;;
4182;SDS011;2105;52.300;9.182;2023-01-08T04:14:55;11.83;;;11.03;;
4182;SDS011;2105;52.300;9.182;2023-01-08T04:17:23;13.37;;;12.17;;
4182;SDS011;2105;52.300;9.182;2023-01-08T04:19:49;12.17;;;11.37;;
4182;SDS011;2105;52.300;9.182;2023-01-08T04:22:16;12.30;;;11.40;;
4182;SDS011;2105;52.300;9.182;2023-01-08T04:24:43;11.57;;;10.77;;
4182;SDS011;2105;52.300;9.182;2023-01-08T04:27:09;11.40;;;10.60;;
4182;SDS011;2105;52.300;9.182;2023-01-08T04:29:36;11.97;;;11.07;;
4182;SDS011;2105;52.300;9.182;2023-01-08T04:32:03;12.17;;;11.17;;
4182;SDS011;2105;52.300;9.182;2023-01-08T04:34:31;11.93;;;10.90;;
4182;SDS011;2105;52.300;9.182;2023-01-08T04:36:58;14.03;;;10.70;;
4182;SDS011;2105;52.300;9.182;2023-01-08T04:39:24;12.10;;;11.10;;
4182;SDS011;2105;52.300;9.182;2023-01-08T04:41:51;11.67;;;10.87;;
4182;SDS011;2105;52.300;9.182;2023-01-08T04:44:18;11.20;;;10.40;;
4182;SDS011;2105;52.300;9.182;2023-01-08T04:46:44;11.70;;;10.90;;
4182;SDS011;2105;52.300;9.182;2023-01-08T04:49:11;12.10;;;11.20;;
4182;SDS011;2105;52.300;9.182;2023-01-08T04:51:39;12.30;;;11.30;;
4182;SDS011;2105;52.300;9.182;2023-01-08T04:54:06;12.97;;;11.87;;
4182;SDS011;2105;52.300;9.182;2023-01-08T04:56:33;13.43;;;11.57;;
4182;SDS011;2105;52.300;9.182;2023-01-08T04:58:59;12.67;;;11.37;;
4182;SDS011;2105;52.300;9.182;2023-01-08T05:01:26;12.47;;;11.47;;
4182;SDS011;2105;52.300;9.182;2023-01-08T05:03:54;12.80;;;11.80;;
4182;SDS011;2105;52.300;9.182;2023-01-08T05:06:22;12.13;;;11.27;;
4182;SDS011;2105;52.300;9.182;2023-01-08T05:08:50;12.50;;;11.60;;
4182;SDS011;2105;52.300;9.182;2023-01-08T05:11:17;12.10;;;11.17;;
4182;SDS011;2105;52.300;9.182;2023-01-08T05:13:45;12.23;;;11.33;;
4182;SDS011;2105;52.300;9.182;2023-01-08T05:16:12;13.13;;;10.80;;
4182;SDS011;2105;52.300;9.182;2023-01-08T05:18:39;11.60;;;10.70;;
4182;SDS011;2105;52.300;9.182;2023-01-08T05:21:05;11.20;;;10.50;;
4182;SDS011;2105;52.300;9.182;2023-01-08T05:23:32;11.47;;;10.67;;
4182;SDS011;2105;52.300;9.182;2023-01-08T05:26:01;11.80;;;11.00;;
4182;SDS011;2105;52.300;9.182;2023-01-08T05:28:29;11.47;;;10.63;;
4182;SDS011;2105;52.300;9.182;2023-01-08T05:30:57;11.67;;;10.77;;
4182;SDS011;2105;52.300;9.182;2023-01-08T05:33:24;12.33;;;11.33;;
4182;SDS011;2105;52.300;9.182;2023-01-08T05:35:51;11.43;;;10.43;;
4182;SDS011;2105;52.300;9.182;2023-01-08T05:38:18;11.90;;;10.90;;
4182;SDS011;2105;52.300;9.182;2023-01-08T05:40:44;11.83;;;10.93;;
4182;SDS011;2105;52.300;9.182;2023-01-08T05:43:12;11.20;;;10.40;;
4182;SDS011;2105;52.300;9.182;2023-01-08T05:45:39;12.70;;;11.30;;
4182;SDS011;2105;52.300;9.182;2023-01-08T05:48:06;10.63;;;9.93;;
4182;SDS011;2105;52.300;9.182;2023-01-08T05:50:33;11.10;;;10.10;;
4182;SDS011;2105;52.300;9.182;2023-01-08T05:53:00;11.43;;;10.60;;
4182;SDS011;2105;52.300;9.182;2023-01-08T05:55:30;11.90;;;10.80;;
4182;SDS011;2105;52.300;9.182;2023-01-08T05:57:59;10.50;;;9.60;;
4182;SDS011;2105;52.300;9.182;2023-01-08T06:00:27;11.17;;;10.40;;
4182;SDS011;2105;52.300;9.182;2023-01-08T06:02:54;11.30;;;10.50;;
4182;SDS011;2105;52.300;9.182;2023-01-08T06:05:20;10.80;;;9.90;;
4182;SDS011;2105;52.300;9.182;2023-01-08T06:07:47;10.60;;;9.80;;
4182;SDS011;2105;52.300;9.182;2023-01-08T06:10:14;11.50;;;10.50;;
4182;SDS011;2105;52.300;9.182;2023-01-08T06:12:40;12.53;;;10.90;;
4182;SDS011;2105;52.300;9.182;2023-01-08T06:15:08;10.63;;;9.83;;
4182;SDS011;2105;52.300;9.182;2023-01-08T06:17:38;10.90;;;10.10;;
4182;SDS011;2105;52.300;9.182;2023-01-08T06:20:05;11.20;;;10.47;;
4182;SDS011;2105;52.300;9.182;2023-01-08T06:22:32;10.90;;;10.00;;
4182;SDS011;2105;52.300;9.182;2023-01-08T06:24:59;10.57;;;9.80;;
4182;SDS011;2105;52.300;9.182;2023-01-08T06:27:26;10.57;;;9.63;;
4182;SDS011;2105;52.300;9.182;2023-01-08T06:29:52;10.20;;;9.40;;
4182;SDS011;2105;52.300;9.182;2023-01-08T06:32:19;10.50;;;9.60;;
4182;SDS011;2105;52.300;9.182;2023-01-08T06:34:47;10.87;;;9.97;;
4182;SDS011;2105;52.300;9.182;2023-01-08T06:37:14;10.80;;;10.00;;
4182;SDS011;2105;52.300;9.182;2023-01-08T06:39:41;10.30;;;9.70;;
4182;SDS011;2105;52.300;9.182;2023-01-08T06:42:08;9.90;;;9.30;;
4182;SDS011;2105;52.300;9.182;2023-01-08T06:44:34;10.70;;;9.80;;
4182;SDS011;2105;52.300;9.182;2023-01-08T06:47:01;10.07;;;9.37;;
4182;SDS011;2105;52.300;9.182;2023-01-08T06:49:27;10.40;;;9.70;;
4182;SDS011;2105;52.300;9.182;2023-01-08T06:51:55;10.10;;;9.30;;
4182;SDS011;2105;52.300;9.182;2023-01-08T06:54:22;10.60;;;9.90;;
4182;SDS011;2105;52.300;9.182;2023-01-08T06:56:49;10.57;;;9.67;;
4182;SDS011;2105;52.300;9.182;2023-01-08T06:59:15;10.00;;;9.30;;
4182;SDS011;2105;52.300;9.182;2023-01-08T07:01:42;9.30;;;8.70;;
4182;SDS011;2105;52.300;9.182;2023-01-08T07:04:09;9.37;;;8.70;;
4182;SDS011;2105;52.300;9.182;2023-01-08T07:06:35;9.10;;;8.40;;
4182;SDS011;2105;52.300;9.182;2023-01-08T07:09:03;9.13;;;8.53;;
4182;SDS011;2105;52.300;9.182;2023-01-08T07:11:30;9.33;;;8.57;;
4182;SDS011;2105;52.300;9.182;2023-01-08T07:13:57;8.70;;;8.00;;
4182;SDS011;2105;52.300;9.182;2023-01-08T07:16:23;9.80;;;9.00;;
4182;SDS011;2105;52.300;9.182;2023-01-08T07:18:50;9.70;;;9.00;;
4182;SDS011;2105;52.300;9.182;2023-01-08T07:21:17;9.60;;;8.90;;
4182;SDS011;2105;52.300;9.182;2023-01-08T07:23:46;9.07;;;8.37;;
4182;SDS011;2105;52.300;9.182;2023-01-08T07:26:14;9.37;;;8.67;;
4182;SDS011;2105;52.300;9.182;2023-01-08T07:28:42;9.23;;;8.63;;
4182;SDS011;2105;52.300;9.182;2023-01-08T07:31:08;9.63;;;8.90;;
4182;SDS011;2105;52.300;9.182;2023-01-08T07:33:35;9.40;;;8.70;;
4182;SDS011;2105;52.300;9.182;2023-01-08T07:36:02;8.90;;;8.20;;
4182;SDS011;2105;52.300;9.182;2023-01-08T07:38:30;9.90;;;8.97;;
4182;SDS011;2105;52.300;9.182;2023-01-08T07:40:56;9.50;;;8.90;;
4182;SDS011;2105;52.300;9.182;2023-01-08T07:43:24;9.80;;;9.20;;
4182;SDS011;2105;52.300;9.182;2023-01-08T07:45:53;9.43;;;8.83;;
4182;SDS011;2105;52.300;9.182;2023-01-08T07:48:20;9.30;;;8.70;;
4182;SDS011;2105;52.300;9.182;2023-01-08T07:50:47;9.27;;;8.53;;
4182;SDS011;2105;52.300;9.182;2023-01-08T07:53:13;8.77;;;8.17;;
4182;SDS011;2105;52.300;9.182;2023-01-08T07:55:41;9.40;;;8.80;;
4182;SDS011;2105;52.300;9.182;2023-01-08T07:58:08;9.10;;;8.50;;
4182;SDS011;2105;52.300;9.182;2023-01-08T08:00:37;9.70;;;9.03;;
4182;SDS011;2105;52.300;9.182;2023-01-08T08:03:05;9.40;;;8.80;;
4182;SDS011;2105;52.300;9.182;2023-01-08T08:05:35;9.63;;;9.00;;
4182;SDS011;2105;52.300;9.182;2023-01-08T08:08:06;8.73;;;8.13;;
4182;SDS011;2105;52.300;9.182;2023-01-08T08:10:33;9.43;;;8.80;;
4182;SDS011;2105;52.300;9.182;2023-01-08T08:13:00;9.83;;;9.20;;
4182;SDS011;2105;52.300;9.182;2023-01-08T08:15:26;10.03;;;9.33;;
4182;SDS011;2105;52.300;9.182;2023-01-08T08:17:54;9.77;;;9.17;;
4182;SDS011;2105;52.300;9.182;2023-01-08T08:20:21;9.90;;;9.20;;
4182;SDS011;2105;52.300;9.182;2023-01-08T08:22:48;10.13;;;9.47;;
4182;SDS011;2105;52.300;9.182;2023-01-08T08:25:15;9.83;;;9.13;;
4182;SDS011;2105;52.300;9.182;2023-01-08T08:27:41;10.50;;;9.80;;
4182;SDS011;2105;52.300;9.182;2023-01-08T08:30:09;10.50;;;9.73;;
4182;SDS011;2105;52.300;9.182;2023-01-08T08:32:37;10.30;;;9.60;;
4182;SDS011;2105;52.300;9.182;2023-01-08T08:35:05;9.00;;;8.40;;
4182;SDS011;2105;52.300;9.182;2023-01-08T08:37:33;9.83;;;9.23;;
4182;SDS011;2105;52.300;9.182;2023-01-08T08:39:59;10.10;;;9.50;;
4182;SDS011;2105;52.300;9.182;2023-01-08T08:42:26;9.87;;;9.27;;
4182;SDS011;2105;52.300;9.182;2023-01-08T08:44:52;9.70;;;9.10;;
4182;SDS011;2105;52.300;9.182;2023-01-08T08:47:20;9.87;;;9.27;;
4182;SDS011;2105;52.300;9.182;2023-01-08T08:49:46;9.87;;;9.27;;
4182;SDS011;2105;52.300;9.182;2023-01-08T08:52:14;10.07;;;9.40;;
4182;SDS011;2105;52.300;9.182;2023-01-08T08:54:41;9.57;;;8.97;;
4182;SDS011;2105;52.300;9.182;2023-01-08T08:57:08;9.37;;;8.87;;
4182;SDS011;2105;52.300;9.182;2023-01-08T08:59:35;9.20;;;8.70;;
4182;SDS011;2105;52.300;9.182;2023-01-08T09:02:02;9.60;;;8.90;;
4182;SDS011;2105;52.300;9.182;2023-01-08T09:04:30;9.10;;;8.50;;
4182;SDS011;2105;52.300;9.182;2023-01-08T09:06:57;9.40;;;8.80;;
4182;SDS011;2105;52.300;9.182;2023-01-08T09:09:25;9.33;;;8.80;;
4182;SDS011;2105;52.300;9.182;2023-01-08T09:11:52;8.67;;;8.17;;
4182;SDS011;2105;52.300;9.182;2023-01-08T09:14:19;8.87;;;8.37;;
4182;SDS011;2105;52.300;9.182;2023-01-08T09:16:48;9.30;;;8.80;;
4182;SDS011;2105;52.300;9.182;2023-01-08T09:19:15;9.30;;;8.80;;
4182;SDS011;2105;52.300;9.182;2023-01-08T09:21:41;9.03;;;8.43;;
4182;SDS011;2105;52.300;9.182;2023-01-08T09:24:08;9.27;;;8.67;;
4182;SDS011;2105;52.300;9.182;2023-01-08T09:26:37;9.80;;;9.20;;
4182;SDS011;2105;52.300;9.182;2023-01-08T09:29:03;9.50;;;9.00;;
4182;SDS011;2105;52.300;9.182;2023-01-08T09:31:30;9.40;;;8.80;;
4182;SDS011;2105;52.300;9.182;2023-01-08T09:33:58;9.60;;;9.00;;
4182;SDS011;2105;52.300;9.182;2023-01-08T09:36:25;9.80;;;9.10;;
4182;SDS011;2105;52.300;9.182;2023-01-08T09:38:52;10.30;;;9.70;;
4182;SDS011;2105;52.300;9.182;2023-01-08T09:41:20;9.50;;;9.00;;
4182;SDS011;2105;52.300;9.182;2023-01-08T09:43:53;10.10;;;9.47;;
4182;SDS011;2105;52.300;9.182;2023-01-08T09:46:23;10.20;;;9.40;;
4182;SDS011;2105;52.300;9.182;2023-01-08T09:48:52;9.20;;;8.70;;
4182;SDS011;2105;52.300;9.182;2023-01-08T09:51:20;10.47;;;9.77;;
4182;SDS011;2105;52.300;9.182;2023-01-08T09:53:49;9.77;;;9.17;;
4182;SDS011;2105;52.300;9.182;2023-01-08T09:56:19;9.90;;;9.30;;
4182;SDS011;2105;52.300;9.182;2023-01-08T09:58:47;9.93;;;9.33;;
4182;SDS011;2105;52.300;9.182;2023-01-08T10:01:17;9.70;;;9.10;;
4182;SDS011;2105;52.300;9.182;2023-01-08T10:03:47;10.20;;;9.50;;
4182;SDS011;2105;52.300;9.182;2023-01-08T10:06:16;10.23;;;9.43;;
4182;SDS011;2105;52.300;9.182;2023-01-08T10:08:43;9.90;;;9.20;;
4182;SDS011;2105;52.300;9.182;2023-01-08T10:11:11;9.30;;;8.80;;
4182;SDS011;2105;52.300;9.182;2023-01-08T10:13:40;9.00;;;8.50;;
4182;SDS011;2105;52.300;9.182;2023-01-08T10:16:13;8.63;;;8.10;;
4182;SDS011;2105;52.300;9.182;2023-01-08T10:18:46;7.80;;;7.40;;
4182;SDS011;2105;52.300;9.182;2023-01-08T10:21:13;8.10;;;7.60;;
4182;SDS011;2105;52.300;9.182;2023-01-08T10:23:47;8.40;;;7.90;;
4182;SDS011;2105;52.300;9.182;2023-01-08T10:26:23;7.93;;;7.33;;
4182;SDS011;2105;52.300;9.182;2023-01-08T10:28:51;8.13;;;7.53;;
4182;SDS011;2105;52.300;9.182;2023-01-08T10:31:41;8.27;;;7.70;;
4182;SDS011;2105;52.300;9.182;2023-01-08T10:34:11;8.60;;;8.10;;
4182;SDS011;2105;52.300;9.182;2023-01-08T10:36:50;8.43;;;7.93;;
4182;SDS011;2105;52.300;9.182;2023-01-08T10:39:20;9.87;;;8.27;;
4182;SDS011;2105;52.300;9.182;2023-01-08T10:41:49;9.30;;;8.60;;
4182;SDS011;2105;52.300;9.182;2023-01-08T10:44:17;9.73;;;9.13;;
4182;SDS011;2105;52.300;9.182;2023-01-08T10:46:47;9.90;;;9.30;;
4182;SDS011;2105;52.300;9.182;2023-01-08T10:49:18;11.00;;;10.30;;
4182;SDS011;2105;52.300;9.182;2023-01-08T10:51:51;10.70;;;10.10;;
4182;SDS011;2105;52.300;9.182;2023-01-08T10:54:24;11.63;;;10.90;;
4182;SDS011;2105;52.300;9.182;2023-01-08T10:56:57;12.50;;;11.70;;
4182;SDS011;2105;52.300;9.182;2023-01-08T10:59:24;13.10;;;12.10;;
4182;SDS011;2105;52.300;9.182;2023-01-08T11:01:52;12.90;;;12.00;;
4182;SDS011;2105;52.300;9.182;2023-01-08T11:04:22;14.00;;;12.80;;
4182;SDS011;2105;52.300;9.182;2023-01-08T11:06:53;14.40;;;13.30;;
4182;SDS011;2105;52.300;9.182;2023-01-08T11:09:24;14.73;;;13.63;;
4182;SDS011;2105;52.300;9.182;2023-01-08T11:11:55;14.30;;;13.30;;
4182;SDS011;2105;52.300;9.182;2023-01-08T11:14:23;15.77;;;14.37;;
4182;SDS011;2105;52.300;9.182;2023-01-08T11:16:53;15.47;;;14.10;;
4182;SDS011;2105;52.300;9.182;2023-01-08T11:19:22;16.43;;;15.13;;
4182;SDS011;2105;52.300;9.182;2023-01-08T11:21:55;16.57;;;15.07;;
4182;SDS011;2105;52.300;9.182;2023-01-08T11:24:23;17.00;;;15.30;;
4182;SDS011;2105;52.300;9.182;2023-01-08T11:26:53;16.83;;;15.53;;
4182;SDS011;2105;52.300;9.182;2023-01-08T11:29:27;15.50;;;14.40;;
4182;SDS011;2105;52.300;9.182;2023-01-08T11:32:03;16.50;;;15.00;;
4182;SDS011;2105;52.300;9.182;2023-01-08T11:34:45;15.57;;;14.40;;
4182;SDS011;2105;52.300;9.182;2023-01-08T11:37:19;15.90;;;14.60;;
4182;SDS011;2105;52.300;9.182;2023-01-08T11:39:49;15.30;;;14.10;;
4182;SDS011;2105;52.300;9.182;2023-01-08T11:42:25;15.17;;;13.80;;
4182;SDS011;2105;52.300;9.182;2023-01-08T11:45:11;15.03;;;13.60;;
4182;SDS011;2105;52.300;9.182;2023-01-08T11:47:49;14.40;;;13.33;;
4182;SDS011;2105;52.300;9.182;2023-01-08T11:50:26;14.50;;;13.30;;
4182;SDS011;2105;52.300;9.182;2023-01-08T11:53:00;15.03;;;13.60;;
4182;SDS011;2105;52.300;9.182;2023-01-08T11:55:39;15.67;;;13.50;;
4182;SDS011;2105;52.300;9.182;2023-01-08T11:58:15;14.80;;;13.33;;
4182;SDS011;2105;52.300;9.182;2023-01-08T12:00:56;15.17;;;13.67;;
4182;SDS011;2105;52.300;9.182;2023-01-08T12:03:32;14.77;;;13.47;;
4182;SDS011;2105;52.300;9.182;2023-01-08T12:06:04;14.23;;;13.23;;
4182;SDS011;2105;52.300;9.182;2023-01-08T12:08:48;15.20;;;14.10;;
4182;SDS011;2105;52.300;9.182;2023-01-08T12:11:24;15.73;;;14.33;;
4182;SDS011;2105;52.300;9.182;2023-01-08T12:14:05;16.03;;;14.27;;
4182;SDS011;2105;52.300;9.182;2023-01-08T12:16:52;15.17;;;13.87;;
4182;SDS011;2105;52.300;9.182;2023-01-08T12:19:41;15.30;;;14.07;;
4182;SDS011;2105;52.300;9.182;2023-01-08T12:22:22;15.93;;;14.37;;
4182;SDS011;2105;52.300;9.182;2023-01-08T12:27:52;14.93;;;13.63;;
4182;SDS011;2105;52.300;9.182;2023-01-08T12:30:30;15.73;;;14.10;;
4182;SDS011;2105;52.300;9.182;2023-01-08T12:33:07;17.37;;;15.50;;
4182;SDS011;2105;52.300;9.182;2023-01-08T12:35:41;16.63;;;14.10;;
4182;SDS011;2105;52.300;9.182;2023-01-08T12:38:14;16.13;;;14.57;;
4182;SDS011;2105;52.300;9.182;2023-01-08T12:40:46;15.33;;;13.80;;
4182;SDS011;2105;52.300;9.182;2023-01-08T12:43:17;15.87;;;14.37;;
4182;SDS011;2105;52.300;9.182;2023-01-08T12:45:49;17.17;;;15.37;;
4182;SDS011;2105;52.300;9.182;2023-01-08T12:48:19;16.50;;;14.60;;
4182;SDS011;2105;52.300;9.182;2023-01-08T12:50:56;16.20;;;14.70;;
4182;SDS011;2105;52.300;9.182;2023-01-08T12:53:33;16.27;;;14.80;;
4182;SDS011;2105;52.300;9.182;2023-01-08T12:56:08;18.27;;;14.90;;
4182;SDS011;2105;52.300;9.182;2023-01-08T12:58:42;16.17;;;14.80;;
4182;SDS011;2105;52.300;9.182;2023-01-08T13:01:22;16.10;;;14.80;;
4182;SDS011;2105;52.300;9.182;2023-01-08T13:03:57;18.13;;;15.47;;
4182;SDS011;2105;52.300;9.182;2023-01-08T13:06:26;16.57;;;14.87;;
4182;SDS011;2105;52.300;9.182;2023-01-08T13:08:53;16.33;;;14.67;;
4182;SDS011;2105;52.300;9.182;2023-01-08T13:11:22;16.37;;;14.67;;
4182;SDS011;2105;52.300;9.182;2023-01-08T13:13:57;15.57;;;14.10;;
4182;SDS011;2105;52.300;9.182;2023-01-08T13:16:26;16.50;;;14.83;;
4182;SDS011;2105;52.300;9.182;2023-01-08T13:18:53;16.33;;;14.73;;
4182;SDS011;2105;52.300;9.182;2023-01-08T13:21:30;16.37;;;14.87;;
4182;SDS011;2105;52.300;9.182;2023-01-08T13:24:00;22.10;;;15.90;;
4182;SDS011;2105;52.300;9.182;2023-01-08T13:26:29;16.53;;;14.73;;
4182;SDS011;2105;52.300;9.182;2023-01-08T13:29:05;16.10;;;14.70;;
4182;SDS011;2105;52.300;9.182;2023-01-08T13:31:57;15.67;;;14.30;;
4182;SDS011;2105;52.300;9.182;2023-01-08T13:34:32;16.10;;;14.60;;
4182;SDS011;2105;52.300;9.182;2023-01-08T13:37:04;15.53;;;14.30;;
4182;SDS011;2105;52.300;9.182;2023-01-08T13:39:32;16.40;;;14.80;;
4182;SDS011;2105;52.300;9.182;2023-01-08T13:42:01;15.43;;;14.10;;
4182;SDS011;2105;52.300;9.182;2023-01-08T13:44:47;16.00;;;14.43;;
4182;SDS011;2105;52.300;9.182;2023-01-08T13:47:17;17.23;;;14.40;;
4182;SDS011;2105;52.300;9.182;2023-01-08T13:49:54;15.80;;;14.23;;
4182;SDS011;2105;52.300;9.182;2023-01-08T13:52:28;15.40;;;14.20;;
4182;SDS011;2105;52.300;9.182;2023-01-08T13:55:02;15.97;;;14.50;;
4182;SDS011;2105;52.300;9.182;2023-01-08T13:57:33;15.77;;;14.57;;
4182;SDS011;2105;52.300;9.182;2023-01-08T14:00:04;15.47;;;14.00;;
4182;SDS011;2105;52.300;9.182;2023-01-08T14:02:40;15.47;;;14.07;;
4182;SDS011;2105;52.300;9.182;2023-01-08T14:05:16;15.33;;;14.23;;
4182;SDS011;2105;52.300;9.182;2023-01-08T14:07:48;15.80;;;13.90;;
4182;SDS011;2105;52.300;9.182;2023-01-08T14:10:15;14.77;;;13.57;;
4182;SDS011;2105;52.300;9.182;2023-01-08T14:12:42;14.47;;;13.03;;
4182;SDS011;2105;52.300;9.182;2023-01-08T14:15:14;14.90;;;13.60;;
4182;SDS011;2105;52.300;9.182;2023-01-08T14:17:45;13.80;;;12.77;;
4182;SDS011;2105;52.300;9.182;2023-01-08T14:20:14;13.97;;;12.40;;
4182;SDS011;2105;52.300;9.182;2023-01-08T14:22:49;13.00;;;12.10;;
4182;SDS011;2105;52.300;9.182;2023-01-08T14:25:16;12.90;;;11.83;;
4182;SDS011;2105;52.300;9.182;2023-01-08T14:27:53;12.40;;;11.50;;
4182;SDS011;2105;52.300;9.182;2023-01-08T14:30:21;11.70;;;10.83;;
4182;SDS011;2105;52.300;9.182;2023-01-08T14:32:48;11.63;;;10.83;;
4182;SDS011;2105;52.300;9.182;2023-01-08T14:35:15;11.53;;;10.70;;
4182;SDS011;2105;52.300;9.182;2023-01-08T14:37:46;11.50;;;10.60;;
4182;SDS011;2105;52.300;9.182;2023-01-08T14:40:14;10.90;;;10.20;;
4182;SDS011;2105;52.300;9.182;2023-01-08T14:42:42;10.93;;;10.13;;
4182;SDS011;2105;52.300;9.182;2023-01-08T14:45:15;9.20;;;8.57;;
4182;SDS011;2105;52.300;9.182;2023-01-08T14:47:45;8.43;;;7.60;;
4182;SDS011;2105;52.300;9.182;2023-01-08T14:50:17;7.63;;;7.23;;
4182;SDS011;2105;52.300;9.182;2023-01-08T14:52:48;8.20;;;7.60;;
4182;SDS011;2105;52.300;9.182;2023-01-08T14:55:18;9.40;;;8.50;;
4182;SDS011;2105;52.300;9.182;2023-01-08T14:57:47;8.50;;;7.90;;
4182;SDS011;2105;52.300;9.182;2023-01-08T15:02:45;8.60;;;8.10;;
4182;SDS011;2105;52.300;9.182;2023-01-08T15:05:15;8.80;;;8.10;;
4182;SDS011;2105;52.300;9.182;2023-01-08T15:07:53;9.00;;;8.30;;
4182;SDS011;2105;52.300;9.182;2023-01-08T15:10:31;8.93;;;8.23;;
4182;SDS011;2105;52.300;9.182;2023-01-08T15:13:00;9.10;;;8.50;;
4182;SDS011;2105;52.300;9.182;2023-01-08T15:15:30;9.30;;;8.60;;